High Point, NC (27265)

2:53 AM EDT on September 01, 2016 (GMT -0400)
| | Change Station

Elev -9999 ft 0.00 °N, 0.00 °E | Updated

Partly Cloudy
Partly Cloudy
72 °F
Feels Like 72 °F
N
3
Wind Variable Wind from WSW
Gusts mph

Today
High -- | Low -- °F
--% Chance of Precip.
Yesterday
High -- | Low -- °F
Precip. -- in
Pressure 29.90 in
Visibility 10.0 miles
Clouds Scattered Clouds 5000 ft
Mostly Cloudy 6500 ft
Dew Point 69 °F
Humidity 92%
Rainfall --
Snow Depth Not available.
6:52 AM 7:46 PM
Waning Crescent, 0% visible
METAR KGSO 010554Z 26005KT 10SM SCT050 BKN065 24/21 A2994 RMK AO2 SLP125 OCNL LTGICCG DSNT NE CB DSNT NE T02390211 10289 20239 58000
Pressure 29.90 in
Visibility 10.0 miles
Clouds Scattered Clouds 5000 ft
Mostly Cloudy 6500 ft
Dew Point 69 °F
Humidity 92%
Rainfall --
Snow Depth Not available.
6:52 AM 7:46 PM
Waning Crescent, 0% visible
METAR KGSO 010554Z 26005KT 10SM SCT050 BKN065 24/21 A2994 RMK AO2 SLP125 OCNL LTGICCG DSNT NE CB DSNT NE T02390211 10289 20239 58000

10-Day Weather Forecast

Almanac

Astronomy

Sep. 01, 2016 Rise Set
Actual Time
Civil Twilight
Nautical Twilight
Astronomical Twilight
Moon
Length of Visible Light
Length of Day
Tomorrow will be .
, % of the Moon is Illuminated

Today's Extremes

State Highs State Lows

Community

WunderPhotos

Upload Photos

1,936,315 photos uploaded!

WunderBlog® & News

Nearby

Air Quality

  Air Quality AQ Index Pollutant
Not available.

Snow Depth

Station Depth Elevation

Earthquake Activity

City Distance Mag. Time & Date
Minimum magnitude displayed is 2.5.

Coastal Water Temperatures

Place Temperature

Stations

Nearby Weather Stations

Station Location Temp. Windchill Dew Point Humidity Wind Precip. Elev Updated Type
                   

Watches & Warnings

There are currently no watches in effect.